Time;durP1;ratioP1;P1;durP2;ratioP2;P2;SDS_P1;SDS_P2;PMS_P1;PMS_P2;Temp;Humidity;BMP_temperature;BMP_pressure;BME280_temperature;BME280_humidity;BME280_pressure;Samples;Min_cycle;Max_cycle;Signal;HPM_P1;HPM_P2
2020/12/08 06:00:34;;;;;;;12.03;5.80;;;;;;;;;;1778407;79;21622;-55
2020/12/08 06:03:14;;;;;;;15.43;6.65;;;;;;;-9.11;70.43;101648.80;1685216;83;21632;-56
2020/12/08 06:05:45;;;;;;;21.57;8.48;;;;;;;-9.14;70.18;101642.42;1677655;83;21186;-56
2020/12/08 06:08:19;;;;;;;17.37;6.95;;;;;;;-9.14;70.10;101649.60;1679590;84;21328;-57
2020/12/08 06:10:53;;;;;;;44.58;19.42;;;;;;;-9.09;70.02;101643.32;1718170;83;21319;-56
2020/12/08 06:13:32;;;;;;;24.47;10.53;;;;;;;-9.05;69.83;101644.64;1693401;82;21332;-56
2020/12/08 06:16:03;;;;;;;34.73;14.43;;;;;;;-8.96;69.74;101647.23;1681499;82;21149;-56
2020/12/08 06:18:36;;;;;;;17.85;7.40;;;;;;;-8.88;69.44;101642.25;1704706;82;21625;-56
2020/12/08 06:21:17;;;;;;;36.73;17.65;;;;;;;-8.84;69.12;101645.64;1667803;83;21320;-56
2020/12/08 06:24:00;;;;;;;17.10;8.60;;;;;;;-8.73;68.98;101654.17;1807210;77;22207;-56
2020/12/08 06:26:30;;;;;;;20.00;9.18;;;;;;;-8.77;68.78;101646.95;1786470;80;21601;-57
2020/12/08 06:29:08;;;;;;;19.52;9.10;;;;;;;-8.73;68.71;101650.37;1779930;79;21162;-57
2020/12/08 06:31:45;;;;;;;24.37;13.15;;;;;;;-8.69;68.51;101656.75;1788166;79;21552;-57
2020/12/08 06:34:29;;;;;;;21.27;11.90;;;;;;;-8.68;68.33;101655.06;1792876;79;21138;-56
2020/12/08 06:36:53;;;;;;;14.58;7.10;;;;;;;-8.67;68.25;101653.38;1803407;79;21593;-57
2020/12/08 06:39:22;;;;;;;21.07;9.80;;;;;;;-8.66;68.05;101667.31;1780387;79;21586;-56
2020/12/08 06:41:50;;;;;;;13.18;6.17;;;;;;;-8.62;68.02;101658.06;1800317;79;21558;-57
2020/12/08 06:44:23;;;;;;;16.23;7.10;;;;;;;-8.50;68.02;101658.99;1793721;79;21577;-56
2020/12/08 06:46:58;;;;;;;14.18;6.30;;;;;;;-8.39;67.71;101662.84;1791612;80;21621;-56
2020/12/08 06:49:39;;;;;;;17.48;8.23;;;;;;;-8.35;67.33;101661.19;1724952;83;21137;-55
2020/12/08 06:52:11;;;;;;;19.95;8.10;;;;;;;-8.32;67.11;101661.16;1709997;81;22191;-55
2020/12/08 06:54:40;;;;;;;25.27;11.53;;;;;;;-8.26;67.05;101666.27;1757076;81;21182;-56
2020/12/08 06:57:08;;;;;;;21.12;9.68;;;;;;;-8.14;66.72;101670.14;1749766;81;21167;-56
2020/12/08 06:59:48;;;;;;;15.88;7.37;;;;;;;-8.15;66.53;101665.91;1728566;83;21628;-57
2020/12/08 07:02:17;;;;;;;15.45;6.37;;;;;;;-8.10;66.30;101659.18;1757952;81;22258;-57
2020/12/08 07:04:47;;;;;;;28.23;13.62;;;;;;;-8.07;66.07;101661.75;1726595;81;21127;-57
2020/12/08 07:07:16;;;;;;;37.38;20.08;;;;;;;-8.06;65.92;101671.05;1685008;82;21609;-57
2020/12/08 07:09:46;;;;;;;23.60;10.32;;;;;;;-8.07;65.84;101668.09;1741656;82;21586;-56
2020/12/08 07:12:15;;;;;;;18.77;8.10;;;;;;;-7.97;65.79;101668.95;1719748;82;21230;-56
2020/12/08 07:14:44;;;;;;;17.02;7.72;;;;;;;-7.88;65.61;101660.98;1714211;82;21800;-56
2020/12/08 07:17:14;;;;;;;15.28;7.10;;;;;;;-7.82;65.37;101670.73;1719388;82;21320;-56
2020/12/08 07:19:43;;;;;;;29.35;15.35;;;;;;;-7.72;65.13;101669.91;1739662;82;21229;-57
2020/12/08 07:22:15;;;;;;;30.85;16.52;;;;;;;-7.69;64.88;101655.98;1735747;81;21703;-57
2020/12/08 07:24:43;;;;;;;14.40;6.55;;;;;;;-7.64;64.73;101659.35;1748405;82;21337;-57
2020/12/08 07:27:12;;;;;;;15.68;6.70;;;;;;;-7.54;64.45;101664.05;1753705;80;21175;-57
2020/12/08 07:29:40;;;;;;;35.43;21.75;;;;;;;-7.48;64.18;101661.10;1756268;81;21728;-56
2020/12/08 07:32:08;;;;;;;17.80;7.45;;;;;;;-7.45;64.02;101662.79;1747957;82;21309;-57
2020/12/08 07:34:39;;;;;;;14.35;6.72;;;;;;;-7.40;63.86;101667.46;1747638;82;21209;-57
2020/12/08 07:37:12;;;;;;;12.53;6.03;;;;;;;-7.36;63.70;101667.48;1746598;82;21607;-56
2020/12/08 07:39:41;;;;;;;15.80;5.97;;;;;;;-7.28;63.48;101671.30;1757171;80;21704;-56
2020/12/08 07:42:10;;;;;;;16.07;6.65;;;;;;;-7.23;63.21;101669.62;1716060;83;21984;-57
2020/12/08 07:44:38;;;;;;;12.78;5.85;;;;;;;-7.20;63.13;101668.80;1746260;82;21618;-57
2020/12/08 07:47:12;;;;;;;11.73;5.67;;;;;;;-7.08;62.95;101668.39;1746254;82;21885;-56
2020/12/08 07:49:41;;;;;;;18.00;6.43;;;;;;;-6.97;62.66;101670.91;1769988;80;21527;-56
2020/12/08 07:52:09;;;;;;;12.90;5.92;;;;;;;-6.89;62.29;101673.06;1753932;80;22519;-57
2020/12/08 07:54:39;;;;;;;16.48;6.05;;;;;;;-6.87;62.17;101672.62;1756210;81;21187;-57
2020/12/08 07:57:07;;;;;;;15.28;6.70;;;;;;;-6.72;61.93;101678.55;1766435;81;21562;-58
2020/12/08 07:59:38;;;;;;;18.67;6.67;;;;;;;-6.68;61.69;101672.20;1748245;82;21597;-58
2020/12/08 08:02:09;;;;;;;13.85;6.40;;;;;;;-6.63;61.50;101668.39;1747746;82;21837;-57
2020/12/08 08:04:37;;;;;;;15.03;6.35;;;;;;;-6.57;61.09;101660.76;1756419;80;21632;-57
2020/12/08 08:07:06;;;;;;;14.53;6.90;;;;;;;-6.53;60.90;101666.24;1763922;79;22406;-56
2020/12/08 08:09:35;;;;;;;15.63;5.90;;;;;;;-6.47;60.72;101658.61;1759619;79;21633;-57
2020/12/08 08:12:03;;;;;;;15.53;6.85;;;;;;;-6.39;60.50;101662.00;1753822;81;21610;-57
2020/12/08 08:14:33;;;;;;;17.17;7.50;;;;;;;-6.34;60.16;101662.81;1752631;81;21131;-57
2020/12/08 08:17:04;;;;;;;14.60;6.65;;;;;;;-6.31;60.07;101658.16;1757275;80;21585;-57
2020/12/08 08:19:32;;;;;;;14.95;6.90;;;;;;;-6.21;59.89;101654.77;1747831;82;21602;-57
2020/12/08 08:22:03;;;;;;;15.43;6.90;;;;;;;-6.14;59.72;101659.41;1749930;81;21151;-57
2020/12/08 08:24:32;;;;;;;13.55;6.83;;;;;;;-6.12;59.30;101655.99;1754561;81;21622;-57
2020/12/08 08:27:01;;;;;;;13.40;6.70;;;;;;;-6.08;58.97;101652.59;1698525;84;21123;-57
2020/12/08 08:29:30;;;;;;;15.68;6.70;;;;;;;-6.05;59.03;101651.30;1771223;80;21123;-57
2020/12/08 08:31:59;;;;;;;15.83;6.05;;;;;;;-5.97;59.07;101653.81;1753470;81;21594;-58
2020/12/08 08:34:27;;;;;;;13.10;5.15;;;;;;;-5.86;58.76;101646.95;1760795;81;21555;-57
2020/12/08 08:36:58;;;;;;;14.25;5.85;;;;;;;-5.77;58.21;101647.36;1768030;79;21109;-57
2020/12/08 08:39:26;;;;;;;14.95;5.92;;;;;;;-5.74;57.91;101653.27;1695150;84;21638;-57
2020/12/08 08:41:55;;;;;;;12.98;5.90;;;;;;;-5.70;57.74;101642.66;1755225;81;21333;-56
2020/12/08 08:44:24;;;;;;;12.68;5.65;;;;;;;-5.66;57.62;101643.03;1757554;81;21139;-57
2020/12/08 08:46:52;;;;;;;14.83;6.10;;;;;;;-5.64;57.39;101642.63;1752332;81;21630;-56
2020/12/08 08:49:21;;;;;;;12.82;5.17;;;;;;;-5.67;57.20;101636.25;1747861;82;21183;-57
2020/12/08 08:51:49;;;;;;;12.45;5.60;;;;;;;-5.69;57.10;101635.00;1752334;80;21625;-56
2020/12/08 08:54:18;;;;;;;10.15;5.53;;;;;;;-5.70;57.17;101642.66;1715823;83;21813;-56
2020/12/08 08:56:46;;;;;;;11.90;5.55;;;;;;;-5.61;57.08;101646.41;1761367;79;21728;-55
2020/12/08 08:59:15;;;;;;;15.28;6.47;;;;;;;-5.57;56.59;101648.53;1773659;80;21191;-54
2020/12/08 09:01:44;;;;;;;15.85;6.25;;;;;;;-5.65;56.36;101640.06;1773143;81;21167;-55
2020/12/08 09:04:13;;;;;;;14.38;5.95;;;;;;;-5.63;56.69;101630.73;1761869;79;21626;-54
2020/12/08 09:06:42;;;;;;;13.80;5.78;;;;;;;-5.50;56.83;101630.66;1751534;81;21622;-56
2020/12/08 09:09:11;;;;;;;32.13;16.70;;;;;;;-5.39;56.51;101628.05;1765052;81;21598;-56
2020/12/08 09:11:40;;;;;;;21.80;9.93;;;;;;;-5.34;56.18;101623.77;1759551;81;21654;-56
2020/12/08 09:14:09;;;;;;;24.57;12.58;;;;;;;-5.31;56.09;101624.17;1767866;81;21587;-55
2020/12/08 09:16:39;;;;;;;17.52;8.88;;;;;;;-5.20;56.03;101619.84;1771165;80;21279;-56
2020/12/08 09:19:08;;;;;;;29.72;16.77;;;;;;;-5.07;55.90;101613.80;1762535;79;21179;-58
2020/12/08 09:21:36;;;;;;;15.03;7.10;;;;;;;-5.03;55.57;101617.15;1762707;81;21182;-59
2020/12/08 09:24:07;;;;;;;13.25;6.28;;;;;;;-4.95;55.35;101616.25;1758958;81;21788;-59
2020/12/08 09:26:40;;;;;;;19.00;7.33;;;;;;;-4.86;54.73;101620.41;1755446;80;21678;-58
2020/12/08 09:29:09;;;;;;;17.12;8.55;;;;;;;-4.81;54.63;101619.95;1754006;80;21182;-58
2020/12/08 09:31:40;;;;;;;15.90;7.08;;;;;;;-4.75;54.48;101612.24;1757424;81;21557;-56
2020/12/08 09:34:11;;;;;;;16.52;7.33;;;;;;;-4.69;54.30;101607.08;1761115;81;21590;-57
2020/12/08 09:36:39;;;;;;;20.23;7.83;;;;;;;-4.63;54.00;101612.56;1748046;82;21159;-57
2020/12/08 09:39:08;;;;;;;22.27;9.95;;;;;;;-4.54;53.87;101610.34;1757673;79;21594;-57
2020/12/08 09:41:37;;;;;;;14.95;6.97;;;;;;;-4.47;53.88;101614.51;1757377;79;21749;-57
2020/12/08 09:44:09;;;;;;;13.48;6.17;;;;;;;-4.29;53.70;101608.37;1769173;81;21088;-55
2020/12/08 09:46:38;;;;;;;14.83;6.40;;;;;;;-4.18;53.04;101612.49;1769461;80;21291;-56
2020/12/08 09:49:07;;;;;;;11.88;5.90;;;;;;;-4.10;52.83;101604.34;1769568;81;21566;-56
2020/12/08 09:51:35;;;;;;;16.50;6.80;;;;;;;-4.12;52.74;101611.58;1757455;81;21142;-55
2020/12/08 09:54:04;;;;;;;11.53;5.62;;;;;;;-4.09;52.83;101606.02;1775053;79;21554;-55
2020/12/08 09:56:33;;;;;;;19.48;7.33;;;;;;;-3.96;52.61;101609.70;1772084;81;21168;-55
2020/12/08 09:59:01;;;;;;;15.10;6.30;;;;;;;-3.94;52.15;101607.53;1757543;81;21171;-55
2020/12/08 10:01:36;;;;;;;10.63;5.50;;;;;;;-3.89;52.02;101610.88;1755257;81;21651;-55
2020/12/08 10:04:08;;;;;;;12.35;6.22;;;;;;;-3.76;51.58;101604.33;1754455;80;21159;-55
2020/12/08 10:06:40;;;;;;;13.58;6.10;;;;;;;-3.70;51.18;101602.54;1711833;83;21213;-55
2020/12/08 10:09:09;;;;;;;13.00;5.42;;;;;;;-3.66;51.13;101602.08;1763147;79;21736;-56
2020/12/08 10:11:46;;;;;;;;;;;;;;;-3.63;50.89;101595.20;1768513;81;21135;-56
2020/12/08 10:14:21;;;;;;;13.68;6.30;;;;;;;-3.62;50.77;101587.94;1727919;82;20189;-57
2020/12/08 10:16:58;;;;;;;14.63;6.78;;;;;;;-3.62;50.65;101594.33;1716814;81;21764;-56
2020/12/08 10:19:29;;;;;;;13.30;5.67;;;;;;;-3.54;50.80;101590.38;1722858;82;21752;-56
2020/12/08 10:22:01;;;;;;;11.80;5.85;;;;;;;-3.48;50.51;101586.89;1749914;81;21210;-56
2020/12/08 10:24:30;;;;;;;11.38;5.65;;;;;;;-3.49;50.27;101575.83;1756123;81;21138;-57
2020/12/08 10:27:01;;;;;;;11.90;5.55;;;;;;;-3.39;50.07;101582.50;1755987;82;21170;-57
2020/12/08 10:29:30;;;;;;;12.68;6.03;;;;;;;-3.39;50.07;101582.50;1770979;80;21106;-57
2020/12/08 10:31:59;;;;;;;13.68;5.33;;;;;;;-3.33;50.31;101572.19;1766638;80;21199;-57
2020/12/08 10:34:32;;;;;;;16.25;5.85;;;;;;;-3.23;50.14;101574.14;1760078;80;21464;-57
2020/12/08 10:37:10;;;;;;;10.48;4.90;;;;;;;-3.13;49.93;101569.30;1768055;79;21193;-57
2020/12/08 10:39:40;;;;;;;12.78;5.12;;;;;;;-2.97;49.85;101563.52;1764005;80;21157;-57
2020/12/08 10:42:13;;;;;;;10.95;5.53;;;;;;;-2.87;49.63;101557.78;1761930;80;21138;-59
2020/12/08 10:44:43;;;;;;;10.53;4.78;;;;;;;-2.74;49.16;101557.53;1757683;80;21555;-56
2020/12/08 10:47:14;;;;;;;11.85;5.65;;;;;;;-2.74;49.16;101557.53;1780167;80;21135;-57
2020/12/08 10:49:42;;;;;;;10.32;4.80;;;;;;;-2.67;48.58;101551.89;1783127;79;21661;-57
2020/12/08 10:52:10;;;;;;;9.75;4.60;;;;;;;-2.67;48.58;101551.89;1776213;79;21147;-57
2020/12/08 10:54:39;;;;;;;10.58;5.10;;;;;;;-2.66;48.56;101554.02;1768240;80;21173;-55
2020/12/08 10:57:07;;;;;;;10.68;5.22;;;;;;;-2.66;48.43;101555.30;1769032;80;21693;-55
2020/12/08 10:59:36;;;;;;;11.97;5.05;;;;;;;-2.66;48.26;101553.58;1769197;81;21724;-54
2020/12/08 11:02:04;;;;;;;11.00;5.30;;;;;;;-2.59;48.28;101553.86;1768757;80;21618;-54
2020/12/08 11:04:33;;;;;;;10.43;4.87;;;;;;;-2.56;48.24;101549.11;1772298;80;21578;-54
2020/12/08 11:07:02;;;;;;;11.73;5.40;;;;;;;-2.59;48.26;101539.79;1794537;80;21613;-55
2020/12/08 11:09:32;;;;;;;9.58;4.78;;;;;;;-2.50;48.32;101550.27;1758733;81;21633;-56
2020/12/08 11:12:01;;;;;;;12.25;5.12;;;;;;;-2.49;48.53;101546.84;1792022;79;21574;-56
2020/12/08 11:14:31;;;;;;;9.93;5.17;;;;;;;-2.49;48.58;101545.11;1785007;79;21687;-55
2020/12/08 11:17:00;;;;;;;8.48;4.55;;;;;;;-2.49;48.58;101545.11;1739411;82;21548;-55
2020/12/08 11:19:31;;;;;;;8.18;4.15;;;;;;;-2.52;48.31;101551.59;1755830;81;21571;-55
2020/12/08 11:22:07;;;;;;;14.40;5.72;;;;;;;-2.53;48.45;101547.34;1755746;82;21164;-56
2020/12/08 11:24:39;;;;;;;10.53;5.22;;;;;;;-2.51;48.18;101541.75;1750004;81;21133;-57
2020/12/08 11:27:20;;;;;;;12.33;5.17;;;;;;;-2.51;48.18;101541.75;1760102;81;21187;-55
2020/12/08 11:29:51;;;;;;;10.95;5.05;;;;;;;-2.48;48.32;101543.43;1769503;80;21738;-57
2020/12/08 11:32:20;;;;;;;11.65;4.83;;;;;;;-2.50;48.21;101542.16;1763232;81;21200;-55
2020/12/08 11:34:50;;;;;;;40.67;28.32;;;;;;;-2.50;48.30;101539.59;1762790;81;21609;-56
2020/12/08 11:37:19;;;;;;;14.05;7.70;;;;;;;-2.48;47.99;101536.59;1763528;81;21632;-56
2020/12/08 11:39:47;;;;;;;14.30;6.05;;;;;;;-2.54;48.13;101532.88;1763586;81;21593;-56
2020/12/08 11:42:16;;;;;;;27.45;10.55;;;;;;;-2.60;48.16;101532.98;1784635;80;21582;-55
2020/12/08 11:44:46;;;;;;;18.15;8.58;;;;;;;-2.56;48.22;101531.20;1794814;80;21581;-56
2020/12/08 11:47:17;;;;;;;28.55;14.10;;;;;;;-2.54;48.38;101534.59;1793546;80;21729;-56
2020/12/08 11:49:51;;;;;;;19.20;9.38;;;;;;;-2.47;48.50;101533.59;1729423;83;21163;-56
2020/12/08 11:52:20;;;;;;;24.60;11.35;;;;;;;-2.42;48.53;101534.76;1794529;80;21610;-56
2020/12/08 11:54:50;;;;;;;14.38;6.25;;;;;;;-2.44;48.25;101536.91;1767197;80;21400;-57
2020/12/08 11:57:23;;;;;;;10.82;5.42;;;;;;;-2.48;48.23;101528.91;1763793;81;21122;-57
2020/12/08 12:00:04;;;;;;;25.88;13.50;;;;;;;-2.47;48.00;101529.75;1763554;81;21138;-57
2020/12/08 12:02:38;;;;;;;14.30;7.55;;;;;;;-2.56;48.04;101524.80;1763584;81;21590;-55
2020/12/08 12:05:07;;;;;;;15.53;6.28;;;;;;;-2.61;48.23;101526.19;1763700;80;22378;-53
2020/12/08 12:07:35;;;;;;;12.80;7.12;;;;;;;-2.53;48.25;101529.44;1763379;81;22356;-54
2020/12/08 12:10:04;;;;;;;12.03;6.50;;;;;;;-2.51;48.18;101532.80;1763244;81;21637;-55
2020/12/08 12:12:33;;;;;;;12.45;6.35;;;;;;;-2.49;48.14;101531.04;1763713;81;21166;-54
2020/12/08 12:15:02;;;;;;;17.02;9.70;;;;;;;-2.45;48.26;101536.52;1763848;81;21656;-55
2020/12/08 12:17:31;;;;;;;17.85;7.95;;;;;;;-2.48;48.20;101530.20;1768470;80;21147;-55
2020/12/08 12:20:00;;;;;;;13.70;6.80;;;;;;;-2.53;48.03;101541.39;1782835;80;21148;-54
2020/12/08 12:22:29;;;;;;;16.52;7.33;;;;;;;-2.53;48.03;101541.39;1715542;83;21642;-54
2020/12/08 12:24:58;;;;;;;18.48;11.30;;;;;;;-2.58;48.31;101541.91;1725080;82;21303;-54
2020/12/08 12:27:26;;;;;;;14.28;7.40;;;;;;;-2.59;48.38;101542.78;1741508;81;21325;-54
2020/12/08 12:29:54;;;;;;;19.90;10.85;;;;;;;-2.63;48.44;101547.55;1759202;80;21626;-54
2020/12/08 12:32:23;;;;;;;12.90;6.62;;;;;;;-2.66;48.53;101547.18;1755541;81;21648;-54
2020/12/08 12:34:52;;;;;;;13.10;6.12;;;;;;;-2.82;48.88;101535.09;1750882;81;21602;-54
2020/12/08 12:37:23;;;;;;;13.93;6.58;;;;;;;-2.86;48.74;101541.56;1733593;81;21657;-56
2020/12/08 12:39:51;;;;;;;12.05;6.75;;;;;;;-2.99;48.70;101543.05;1732406;81;21690;-56
2020/12/08 12:42:22;;;;;;;11.15;5.92;;;;;;;-2.99;48.70;101543.05;1746091;80;21555;-56
2020/12/08 12:44:51;;;;;;;10.15;5.28;;;;;;;-3.06;49.18;101540.20;1762130;81;21627;-55
2020/12/08 12:47:19;;;;;;;15.25;5.78;;;;;;;-3.04;49.42;101537.20;1760140;81;21554;-56
2020/12/08 12:49:48;;;;;;;21.97;12.43;;;;;;;-3.04;49.38;101542.75;1742395;81;21551;-56
2020/12/08 12:52:17;;;;;;;18.27;9.00;;;;;;;-3.14;49.58;101543.77;1740819;81;21610;-54
2020/12/08 12:54:45;;;;;;;13.90;6.95;;;;;;;-3.14;49.58;101543.77;1764374;79;21179;-55
2020/12/08 12:57:15;;;;;;;18.00;8.50;;;;;;;-3.18;50.04;101544.23;1748312;81;21139;-56
2020/12/08 12:59:44;;;;;;;40.60;19.10;;;;;;;-3.18;50.04;101544.23;1733384;80;21598;-56
2020/12/08 13:02:12;;;;;;;23.45;9.60;;;;;;;-3.17;50.11;101543.80;1748121;81;21551;-55
2020/12/08 13:04:41;;;;;;;21.35;9.55;;;;;;;-3.15;50.33;101541.65;1754570;81;21578;-57
2020/12/08 13:07:15;;;;;;;22.62;10.38;;;;;;;-3.16;50.37;101538.69;1759481;80;21206;-59
2020/12/08 13:09:40;;;;;;;18.57;8.33;;;;;;;-3.17;50.50;101537.41;1761634;80;21135;-58
2020/12/08 13:12:09;;;;;;;24.70;11.10;;;;;;;-3.20;50.82;101533.64;1753472;79;21602;-56
2020/12/08 13:14:39;;;;;;;19.57;8.30;;;;;;;-3.21;50.94;101539.20;1746041;81;21556;-56
2020/12/08 13:17:09;;;;;;;17.87;7.58;;;;;;;-3.23;51.16;101534.95;1746287;81;21654;-59
2020/12/08 13:19:38;;;;;;;26.62;11.15;;;;;;;-3.31;51.42;101535.09;1786532;80;21741;-56
2020/12/08 13:22:08;;;;;;;26.42;9.35;;;;;;;-3.32;51.61;101528.30;1732526;83;21595;-56
2020/12/08 13:24:36;;;;;;;22.75;9.60;;;;;;;-3.32;51.77;101525.73;1744427;81;21772;-57
2020/12/08 13:27:05;;;;;;;20.30;7.60;;;;;;;-3.39;51.94;101530.11;1756348;82;21625;-57
2020/12/08 13:29:37;;;;;;;23.18;9.38;;;;;;;-3.48;52.12;101522.57;1759090;80;21151;-57
2020/12/08 13:32:07;;;;;;;21.50;8.83;;;;;;;-3.56;52.36;101522.70;1769444;80;21186;-57
2020/12/08 13:34:36;;;;;;;19.62;8.10;;;;;;;-3.66;52.74;101526.72;1769775;80;21272;-57
2020/12/08 13:37:06;;;;;;;18.20;8.03;;;;;;;-3.66;53.00;101524.16;1766253;80;21807;-57
2020/12/08 13:39:35;;;;;;;47.13;21.45;;;;;;;-3.70;53.20;101522.08;1784085;80;21634;-57
2020/12/08 13:42:03;;;;;;;22.22;9.63;;;;;;;-3.79;53.43;101514.53;1788002;79;21630;-57
2020/12/08 13:44:32;;;;;;;22.30;10.55;;;;;;;-3.87;53.70;101518.48;1729213;83;21665;-57
2020/12/08 13:47:01;;;;;;;19.02;9.33;;;;;;;-3.89;53.97;101521.50;1759346;81;21159;-57
2020/12/08 13:49:33;;;;;;;39.48;17.25;;;;;;;-3.91;54.17;101514.73;1783999;80;21773;-57
2020/12/08 13:52:02;;;;;;;37.10;16.30;;;;;;;-3.92;54.39;101518.97;1759178;80;21574;-58
2020/12/08 13:54:31;;;;;;;79.82;36.25;;;;;;;-3.91;54.52;101517.29;1774150;80;21538;-57
2020/12/08 13:56:59;;;;;;;76.62;35.00;;;;;;;-3.88;54.61;101519.34;1759491;79;21650;-56
2020/12/08 13:59:28;;;;;;;114.45;50.45;;;;;;;-3.93;54.68;101516.45;1721739;82;21680;-55
2020/12/08 14:01:56;;;;;;;167.40;75.40;;;;;;;-4.02;54.81;101512.33;1755441;82;21194;-55
2020/12/08 14:04:25;;;;;;;93.07;43.23;;;;;;;-4.10;55.06;101512.84;1755542;82;21127;-56
2020/12/08 14:06:53;;;;;;;59.55;27.55;;;;;;;-4.16;55.28;101520.58;1774442;80;21650;-55
2020/12/08 14:09:22;;;;;;;44.25;19.07;;;;;;;-4.24;55.56;101521.12;1709660;83;21598;-55
2020/12/08 14:11:51;;;;;;;54.90;26.00;;;;;;;-4.29;55.89;101521.17;1762935;80;21102;-57
2020/12/08 14:14:20;;;;;;;29.65;12.50;;;;;;;-4.35;56.07;101523.80;1789312;79;21519;-56
2020/12/08 14:16:48;;;;;;;76.42;33.00;;;;;;;-4.42;56.39;101524.73;1819166;79;21618;-56
2020/12/08 14:19:17;;;;;;;48.55;21.40;;;;;;;-4.50;56.67;101528.66;1716416;82;21603;-56
2020/12/08 14:21:45;;;;;;;29.60;13.15;;;;;;;-4.54;56.97;101532.09;1756762;80;22570;-56
2020/12/08 14:24:20;;;;;;;30.90;13.75;;;;;;;-4.56;57.18;101525.34;1772372;80;21566;-56
2020/12/08 14:26:46;;;;;;;44.35;20.27;;;;;;;-4.57;57.39;101521.10;1752662;81;22130;-58
2020/12/08 14:29:15;;;;;;;31.37;14.63;;;;;;;-4.61;57.55;101520.28;1722677;83;21532;-57
2020/12/08 14:31:44;;;;;;;92.27;43.25;;;;;;;-4.67;57.96;101529.27;1722683;83;21626;-57
2020/12/08 14:34:12;;;;;;;48.23;24.05;;;;;;;-4.67;57.96;101529.27;1724360;82;21159;-57
2020/12/08 14:36:42;;;;;;;52.15;25.43;;;;;;;-4.71;58.20;101529.75;1752392;82;21607;-56
2020/12/08 14:39:10;;;;;;;52.43;26.07;;;;;;;-4.73;58.49;101525.08;1726291;81;21187;-56
2020/12/08 14:41:39;;;;;;;41.35;20.35;;;;;;;-4.76;58.71;101523.02;1722854;83;21639;-56
2020/12/08 14:44:07;;;;;;;32.30;17.80;;;;;;;-4.76;59.01;101524.28;1722893;83;21597;-57
2020/12/08 14:46:36;;;;;;;36.65;18.07;;;;;;;-4.76;59.01;101524.28;1723067;83;21741;-56
2020/12/08 14:49:07;;;;;;;38.02;17.73;;;;;;;-4.76;59.23;101520.46;1739734;82;21583;-56
